createdAt,value
2023-03-21T00:01:50.386Z,6.60
2023-03-21T00:04:17.067Z,7.40
2023-03-21T00:06:43.697Z,6.20
2023-03-21T00:09:10.549Z,6.85
2023-03-21T00:11:37.412Z,7.15
2023-03-21T00:14:04.121Z,7.90
2023-03-21T00:16:34.873Z,6.63
2023-03-21T00:19:06.411Z,5.82
2023-03-21T00:21:55.540Z,9.77
2023-03-21T00:24:22.122Z,8.05
2023-03-21T00:26:50.078Z,15.68
2023-03-21T00:29:16.925Z,24.33
2023-03-21T00:31:43.814Z,9.52
2023-03-21T00:36:42.970Z,8.10
2023-03-21T00:39:09.674Z,7.53
2023-03-21T00:41:42.854Z,7.53
2023-03-21T00:44:14.052Z,7.13
2023-03-21T00:46:49.073Z,8.20
2023-03-21T00:49:22.542Z,7.90
2023-03-21T00:54:52.576Z,6.77
2023-03-21T00:57:22.020Z,6.97
2023-03-21T00:59:53.169Z,11.18
2023-03-21T01:02:23.444Z,9.55
2023-03-21T01:04:50.561Z,7.97
2023-03-21T01:07:17.286Z,8.33
2023-03-21T01:09:44.108Z,15.13
2023-03-21T01:12:10.683Z,10.77
2023-03-21T01:14:37.508Z,11.93
2023-03-21T01:17:04.285Z,14.18
2023-03-21T01:19:44.765Z,14.83
2023-03-21T01:22:15.322Z,10.45
2023-03-21T01:24:52.518Z,11.48
2023-03-21T01:27:20.927Z,10.25
2023-03-21T01:29:47.649Z,9.18
2023-03-21T01:32:14.298Z,9.27
2023-03-21T01:34:40.900Z,10.63
2023-03-21T01:37:07.829Z,7.32
2023-03-21T01:39:35.402Z,9.30
2023-03-21T01:42:02.107Z,8.60
2023-03-21T01:44:29.232Z,9.10
2023-03-21T01:47:12.691Z,10.20
2023-03-21T01:49:46.443Z,8.80
2023-03-21T01:52:29.749Z,9.60
2023-03-21T01:55:04.944Z,10.82
2023-03-21T01:57:43.776Z,9.83
2023-03-21T02:00:15.819Z,11.82
2023-03-21T02:02:58.271Z,11.55
2023-03-21T02:08:39.142Z,11.50
2023-03-21T02:11:07.325Z,13.30
2023-03-21T02:13:33.950Z,13.05
2023-03-21T02:16:18.423Z,14.70
2023-03-21T02:18:50.793Z,16.70
2023-03-21T02:21:54.795Z,16.25
2023-03-21T02:25:04.222Z,18.37
2023-03-21T02:27:42.904Z,18.60
2023-03-21T02:30:45.485Z,23.35
2023-03-21T02:33:23.605Z,18.00
2023-03-21T02:36:27.702Z,16.27
2023-03-21T02:39:01.398Z,14.83
2023-03-21T02:41:52.137Z,17.15
2023-03-21T02:44:22.617Z,15.02
2023-03-21T02:47:06.527Z,13.18
2023-03-21T02:49:55.491Z,14.10
2023-03-21T02:52:38.674Z,13.40
2023-03-21T02:55:13.750Z,12.82
2023-03-21T02:57:43.946Z,14.48
2023-03-21T03:00:17.949Z,58.30
2023-03-21T03:02:45.736Z,15.40
2023-03-21T03:05:21.962Z,12.80
2023-03-21T03:07:57.502Z,27.30
2023-03-21T03:10:38.177Z,17.17
2023-03-21T03:13:19.508Z,15.32
2023-03-21T03:19:01.550Z,14.00
2023-03-21T03:21:31.719Z,14.27
2023-03-21T03:24:10.109Z,13.38
2023-03-21T03:26:41.528Z,12.93
2023-03-21T03:29:13.498Z,12.57
2023-03-21T03:31:46.358Z,12.77
2023-03-21T03:34:18.027Z,13.32
2023-03-21T03:36:51.823Z,12.80
2023-03-21T03:39:19.293Z,15.32
2023-03-21T03:42:10.221Z,13.68
2023-03-21T03:44:42.213Z,11.60
2023-03-21T03:47:31.977Z,12.63
2023-03-21T03:50:28.523Z,13.88
2023-03-21T03:53:18.414Z,14.02
2023-03-21T03:55:46.118Z,12.98
2023-03-21T03:58:22.804Z,14.83
2023-03-21T04:00:51.203Z,17.52
2023-03-21T04:03:18.822Z,14.07
2023-03-21T04:05:48.145Z,18.17
2023-03-21T04:08:16.430Z,28.75
2023-03-21T04:10:44.015Z,18.30
2023-03-21T04:13:10.889Z,14.48
2023-03-21T04:15:37.917Z,13.93
2023-03-21T04:18:04.692Z,13.15
2023-03-21T04:20:36.879Z,14.15
2023-03-21T04:23:10.259Z,14.17
2023-03-21T04:25:44.522Z,12.82
2023-03-21T04:28:11.955Z,12.23
2023-03-21T04:30:40.944Z,14.68
2023-03-21T04:33:07.938Z,14.45
2023-03-21T04:35:37.617Z,16.07
2023-03-21T04:38:05.287Z,18.58
2023-03-21T04:40:31.846Z,17.25
2023-03-21T04:43:01.204Z,16.67
2023-03-21T04:45:28.259Z,19.25
2023-03-21T04:47:54.958Z,14.43
2023-03-21T04:50:21.772Z,14.85
2023-03-21T04:52:48.855Z,15.43
2023-03-21T04:55:15.999Z,14.00
2023-03-21T04:57:42.639Z,14.52
2023-03-21T05:00:10.611Z,13.03
2023-03-21T05:02:38.790Z,13.70
2023-03-21T05:05:07.057Z,12.05
2023-03-21T05:07:33.616Z,13.20
2023-03-21T05:10:02.448Z,12.25
2023-03-21T05:12:29.357Z,11.50
2023-03-21T05:14:55.988Z,11.82
2023-03-21T05:17:28.361Z,11.25
2023-03-21T05:19:56.490Z,10.40
2023-03-21T05:22:26.664Z,10.02
2023-03-21T05:24:55.358Z,10.90
2023-03-21T05:27:35.873Z,10.13
2023-03-21T05:30:16.433Z,11.32
2023-03-21T05:32:43.029Z,9.82
2023-03-21T05:35:10.584Z,10.85
2023-03-21T05:37:38.505Z,10.67
2023-03-21T05:40:07.457Z,10.35
2023-03-21T05:42:35.178Z,10.07
2023-03-21T05:45:01.804Z,9.02
2023-03-21T05:47:28.573Z,9.68
2023-03-21T05:49:55.332Z,9.67
2023-03-21T05:52:22.618Z,9.90
2023-03-21T05:54:49.159Z,9.13
2023-03-21T05:57:16.429Z,9.60
2023-03-21T05:59:42.964Z,8.80
2023-03-21T06:02:09.599Z,9.17
2023-03-21T06:04:36.219Z,8.73
2023-03-21T06:07:02.913Z,7.72
2023-03-21T06:09:29.884Z,8.82
2023-03-21T06:11:57.775Z,8.18
2023-03-21T06:14:24.999Z,8.23
2023-03-21T06:16:53.987Z,9.00
2023-03-21T06:19:21.845Z,8.10
2023-03-21T06:21:49.059Z,7.13
2023-03-21T06:24:16.071Z,8.20
2023-03-21T06:26:43.410Z,9.03
2023-03-21T06:29:10.658Z,7.40
2023-03-21T06:31:37.195Z,7.13
2023-03-21T06:34:03.943Z,7.53
2023-03-21T06:36:30.595Z,6.55
2023-03-21T06:38:57.155Z,7.33
2023-03-21T06:41:23.774Z,7.57
2023-03-21T06:43:50.276Z,8.05
2023-03-21T06:46:17.333Z,7.22
2023-03-21T06:48:44.954Z,8.15
2023-03-21T06:51:15.580Z,7.20
2023-03-21T06:53:42.533Z,7.82
2023-03-21T06:56:11.509Z,6.85
2023-03-21T06:58:38.406Z,5.68
2023-03-21T07:01:05.905Z,7.30
2023-03-21T07:03:33.230Z,7.70
2023-03-21T07:09:03.195Z,6.88
2023-03-21T07:11:29.834Z,6.10
2023-03-21T07:13:56.506Z,6.70
2023-03-21T07:16:25.050Z,6.40
2023-03-21T07:18:52.335Z,6.95
2023-03-21T07:21:19.117Z,6.15
2023-03-21T07:23:45.934Z,6.43
2023-03-21T07:26:13.476Z,5.20
2023-03-21T07:28:40.320Z,5.90
2023-03-21T07:31:08.473Z,6.45
2023-03-21T07:33:35.253Z,6.18
2023-03-21T07:36:02.396Z,6.88
2023-03-21T07:38:31.021Z,6.53
2023-03-21T07:41:00.881Z,4.70
2023-03-21T07:43:27.465Z,6.55
2023-03-21T07:45:58.817Z,6.28
2023-03-21T07:48:25.675Z,5.90
2023-03-21T07:50:52.457Z,5.38
2023-03-21T07:53:19.200Z,7.53
2023-03-21T07:55:49.455Z,6.03
2023-03-21T07:58:16.105Z,5.53
2023-03-21T08:00:42.961Z,5.88
2023-03-21T08:03:10.073Z,5.93
2023-03-21T08:05:43.071Z,5.67
2023-03-21T08:08:09.680Z,6.38
2023-03-21T08:10:37.195Z,5.00
2023-03-21T08:13:04.410Z,5.82
2023-03-21T08:15:31.744Z,5.07
2023-03-21T08:17:59.957Z,5.17
2023-03-21T08:20:27.687Z,4.05
2023-03-21T08:22:54.685Z,4.57
2023-03-21T08:25:22.411Z,5.15
2023-03-21T08:27:50.418Z,5.38
2023-03-21T08:30:20.456Z,4.77
2023-03-21T08:32:47.587Z,4.45
2023-03-21T08:35:16.910Z,4.28
2023-03-21T08:37:43.854Z,5.72
2023-03-21T08:40:17.565Z,3.38
2023-03-21T08:42:46.631Z,4.33
2023-03-21T08:45:14.448Z,4.15
2023-03-21T08:47:41.143Z,4.72
2023-03-21T08:50:09.886Z,3.95
2023-03-21T08:52:37.288Z,4.15
2023-03-21T08:55:04.884Z,4.97
2023-03-21T08:57:31.882Z,3.78
2023-03-21T08:59:58.591Z,4.30
2023-03-21T09:02:25.622Z,3.75
2023-03-21T09:04:59.189Z,4.60
2023-03-21T09:07:30.575Z,4.70
2023-03-21T09:10:19.241Z,3.88
2023-03-21T09:12:48.614Z,3.75
2023-03-21T09:15:15.389Z,3.80
2023-03-21T09:17:44.207Z,3.50
2023-03-21T09:20:19.056Z,3.40
2023-03-21T09:22:52.126Z,2.50
2023-03-21T09:25:19.509Z,3.88
2023-03-21T09:27:48.039Z,3.50
2023-03-21T09:30:18.572Z,3.67
2023-03-21T09:32:48.632Z,3.17
2023-03-21T09:35:18.943Z,3.03
2023-03-21T09:37:49.176Z,2.80
2023-03-21T09:40:40.146Z,3.28
2023-03-21T09:43:37.336Z,2.70
2023-03-21T09:46:19.474Z,3.90
2023-03-21T09:49:13.167Z,4.32
2023-03-21T09:51:46.248Z,3.08
2023-03-21T09:54:27.273Z,3.20
2023-03-21T09:57:00.844Z,3.60
2023-03-21T09:59:40.183Z,2.70
2023-03-21T10:02:35.999Z,3.90
2023-03-21T10:05:12.117Z,3.33
2023-03-21T10:07:47.872Z,4.25
2023-03-21T10:10:25.389Z,4.22
2023-03-21T10:12:53.769Z,3.77
2023-03-21T10:15:23.120Z,3.72
2023-03-21T10:18:05.403Z,4.18
2023-03-21T10:23:31.101Z,3.10
2023-03-21T10:29:02.324Z,3.05
2023-03-21T10:31:31.147Z,3.45
2023-03-21T10:34:15.720Z,2.95
2023-03-21T10:36:42.725Z,3.10
2023-03-21T10:39:19.481Z,4.33
2023-03-21T10:41:46.114Z,4.00
2023-03-21T10:44:18.815Z,3.95
2023-03-21T10:46:57.822Z,2.83
2023-03-21T10:49:26.780Z,3.22
2023-03-21T10:51:58.284Z,3.10
2023-03-21T10:54:32.732Z,2.65
2023-03-21T10:57:12.910Z,3.00
2023-03-21T10:59:44.527Z,3.97
2023-03-21T11:02:24.064Z,2.95
2023-03-21T11:04:53.639Z,4.33
2023-03-21T11:07:20.826Z,8.13
2023-03-21T11:09:54.492Z,3.65
2023-03-21T11:15:39.155Z,2.92
2023-03-21T11:18:27.200Z,2.70
2023-03-21T11:23:59.138Z,2.53
2023-03-21T11:26:34.045Z,2.78
2023-03-21T11:32:58.961Z,2.50
2023-03-21T11:35:32.684Z,2.55
2023-03-21T11:37:59.539Z,3.55
2023-03-21T11:40:32.664Z,3.35
2023-03-21T11:43:21.224Z,3.00
2023-03-21T11:45:59.476Z,2.27
2023-03-21T11:48:26.395Z,3.05
2023-03-21T11:51:03.262Z,3.40
2023-03-21T11:53:51.916Z,2.58
2023-03-21T11:56:38.319Z,2.63
2023-03-21T11:59:42.254Z,3.33
2023-03-21T12:02:21.407Z,2.63
2023-03-21T12:05:03.851Z,2.70
2023-03-21T12:07:30.439Z,3.83
2023-03-21T12:10:28.649Z,2.50
2023-03-21T12:13:18.090Z,2.97
2023-03-21T12:15:58.384Z,3.13
2023-03-21T12:18:46.819Z,3.20
2023-03-21T12:21:22.781Z,2.30
2023-03-21T12:23:55.648Z,2.55
2023-03-21T12:26:27.964Z,2.40
2023-03-21T12:29:19.551Z,2.97
2023-03-21T12:32:15.934Z,2.13
2023-03-21T12:39:18.232Z,3.08
2023-03-21T12:41:55.521Z,4.67
2023-03-21T12:44:29.113Z,2.88
2023-03-21T12:47:00.806Z,3.53
2023-03-21T12:49:43.165Z,3.35
2023-03-21T12:52:14.775Z,3.10
2023-03-21T12:54:47.639Z,3.80
2023-03-21T12:57:38.260Z,3.40
2023-03-21T13:00:15.260Z,3.92
2023-03-21T13:02:58.142Z,3.38
2023-03-21T13:05:32.171Z,3.70
2023-03-21T13:08:07.587Z,3.97
2023-03-21T13:10:34.673Z,3.55
2023-03-21T13:13:04.454Z,3.50
2023-03-21T13:15:34.162Z,3.13
2023-03-21T13:18:10.327Z,3.40
2023-03-21T13:20:54.154Z,3.63
2023-03-21T13:23:24.479Z,3.42
2023-03-21T13:25:55.686Z,2.80
2023-03-21T13:28:29.033Z,2.65
2023-03-21T13:31:20.302Z,2.70
2023-03-21T13:33:51.156Z,3.03
2023-03-21T13:36:28.020Z,4.43
2023-03-21T13:39:01.057Z,3.92
2023-03-21T13:41:35.797Z,3.10
2023-03-21T13:44:02.421Z,3.88
2023-03-21T13:46:28.984Z,3.10
2023-03-21T13:49:01.221Z,2.72
2023-03-21T13:51:36.983Z,3.08
2023-03-21T13:54:17.684Z,3.05
2023-03-21T13:56:47.301Z,3.85
2023-03-21T13:59:48.192Z,3.17
2023-03-21T14:02:23.791Z,3.50
2023-03-21T14:05:06.826Z,2.72
2023-03-21T14:07:37.518Z,3.70
2023-03-21T14:10:19.335Z,3.65
2023-03-21T14:12:46.972Z,2.73
2023-03-21T14:15:23.621Z,2.10
2023-03-21T14:17:57.838Z,2.28
2023-03-21T14:20:28.525Z,2.63
2023-03-21T14:22:55.546Z,3.92
2023-03-21T14:25:29.182Z,2.70
2023-03-21T14:28:01.445Z,4.05
2023-03-21T14:30:32.980Z,4.30
2023-03-21T14:33:17.498Z,2.80
2023-03-21T14:35:46.925Z,3.38
2023-03-21T14:38:22.981Z,3.43
2023-03-21T14:40:53.957Z,2.60
2023-03-21T14:43:22.787Z,3.80
2023-03-21T14:45:54.581Z,3.90
2023-03-21T14:48:30.032Z,3.42
2023-03-21T14:51:04.585Z,4.00
2023-03-21T14:53:40.848Z,4.18
2023-03-21T14:56:23.220Z,3.58
2023-03-21T14:58:50.480Z,3.97
2023-03-21T15:01:32.344Z,2.28
2023-03-21T15:04:01.419Z,2.67
2023-03-21T15:06:28.435Z,3.40
2023-03-21T15:08:57.652Z,2.85
2023-03-21T15:11:34.786Z,4.10
2023-03-21T15:14:08.076Z,4.30
2023-03-21T15:16:35.970Z,3.17
2023-03-21T15:19:05.279Z,2.88
2023-03-21T15:27:38.184Z,2.72
2023-03-21T15:30:05.575Z,2.70
2023-03-21T15:32:36.792Z,3.50
2023-03-21T15:38:07.576Z,4.43
2023-03-21T15:40:35.664Z,3.90
2023-03-21T15:43:17.167Z,3.80
2023-03-21T15:45:56.977Z,4.45
2023-03-21T15:48:29.426Z,5.00
2023-03-21T15:53:54.471Z,3.47
2023-03-21T15:56:22.533Z,3.53
2023-03-21T15:58:53.135Z,5.07
2023-03-21T16:01:22.459Z,4.38
2023-03-21T16:03:56.750Z,3.70
2023-03-21T16:06:34.696Z,2.70
2023-03-21T16:09:23.451Z,3.63
2023-03-21T16:11:52.461Z,3.38
2023-03-21T16:14:20.215Z,2.80
2023-03-21T16:16:47.186Z,3.80
2023-03-21T16:19:17.238Z,3.90
2023-03-21T16:21:44.005Z,4.10
2023-03-21T16:24:11.691Z,4.05
2023-03-21T16:26:45.245Z,4.38
2023-03-21T16:29:15.020Z,4.95
2023-03-21T16:31:42.155Z,5.68
2023-03-21T16:34:09.351Z,2.57
2023-03-21T16:36:38.979Z,2.85
2023-03-21T16:39:23.190Z,3.38
2023-03-21T16:41:50.983Z,4.47
2023-03-21T16:44:19.153Z,4.90
2023-03-21T16:46:47.184Z,3.47
2023-03-21T16:49:24.982Z,4.60
2023-03-21T16:51:52.718Z,2.83
2023-03-21T16:54:19.449Z,2.78
2023-03-21T16:56:52.553Z,3.13
2023-03-21T16:59:19.432Z,2.63
2023-03-21T17:01:49.118Z,3.78
2023-03-21T17:04:17.653Z,3.17
2023-03-21T17:06:50.194Z,2.10
2023-03-21T17:09:20.077Z,2.67
2023-03-21T17:11:46.880Z,3.23
2023-03-21T17:14:18.164Z,2.85
2023-03-21T17:16:45.899Z,3.28
2023-03-21T17:19:17.699Z,3.53
2023-03-21T17:21:45.598Z,4.00
2023-03-21T17:24:12.568Z,3.60
2023-03-21T17:26:39.827Z,3.13
2023-03-21T17:29:07.544Z,3.63
2023-03-21T17:31:36.851Z,4.40
2023-03-21T17:34:04.578Z,4.25
2023-03-21T17:36:36.325Z,2.60
2023-03-21T17:39:07.241Z,3.55
2023-03-21T17:41:34.494Z,3.20
2023-03-21T17:44:01.611Z,3.38
2023-03-21T17:46:32.313Z,4.13
2023-03-21T17:48:59.493Z,3.20
2023-03-21T17:51:30.208Z,3.28
2023-03-21T17:53:57.622Z,3.22
2023-03-21T17:56:28.640Z,3.25
2023-03-21T17:58:56.135Z,3.80
2023-03-21T18:01:23.619Z,2.47
2023-03-21T18:03:51.568Z,4.25
2023-03-21T18:09:21.238Z,2.30
2023-03-21T18:11:49.041Z,2.08
2023-03-21T18:14:21.491Z,2.37
2023-03-21T18:16:55.745Z,3.15
2023-03-21T18:19:23.260Z,2.75
2023-03-21T18:21:53.561Z,2.50
2023-03-21T18:24:21.739Z,2.80
2023-03-21T18:26:50.209Z,2.23
2023-03-21T18:30:17.524Z,2.22
2023-03-21T18:32:08.575Z,1.95
2023-03-21T18:34:38.900Z,2.40
2023-03-21T18:37:08.570Z,2.15
2023-03-21T18:39:35.781Z,3.10
2023-03-21T18:42:04.067Z,3.03
2023-03-21T18:44:37.484Z,4.38
2023-03-21T18:47:04.843Z,2.10
2023-03-21T18:52:19.478Z,2.27
2023-03-21T18:54:47.050Z,2.67
2023-03-21T18:57:35.812Z,3.20
2023-03-21T19:00:01.175Z,3.83
2023-03-21T19:02:28.262Z,3.97
2023-03-21T19:04:57.675Z,3.00
2023-03-21T19:07:25.000Z,3.10
2023-03-21T19:10:12.364Z,3.33
2023-03-21T19:12:38.827Z,3.40
2023-03-21T19:15:06.534Z,3.53
2023-03-21T19:20:19.971Z,3.78
2023-03-21T19:22:48.071Z,4.18
2023-03-21T19:25:16.051Z,4.05
2023-03-21T19:27:43.006Z,2.80
2023-03-21T19:30:15.548Z,4.30
2023-03-21T19:32:43.320Z,4.50
2023-03-21T19:35:11.171Z,4.25
2023-03-21T19:37:37.653Z,4.20
2023-03-21T19:40:06.247Z,4.05
2023-03-21T19:42:34.057Z,4.00
2023-03-21T19:45:00.878Z,3.30
2023-03-21T19:47:27.566Z,4.63
2023-03-21T19:50:40.919Z,2.80
2023-03-21T19:52:41.913Z,3.83
2023-03-21T19:55:09.206Z,4.23
2023-03-21T19:57:36.424Z,2.85
2023-03-21T20:00:04.272Z,4.13
2023-03-21T20:02:36.300Z,3.25
2023-03-21T20:05:05.023Z,4.00
2023-03-21T20:07:33.171Z,3.03
2023-03-21T20:10:00.399Z,3.63
2023-03-21T20:12:27.736Z,4.60
2023-03-21T20:15:06.963Z,3.70
2023-03-21T20:17:39.080Z,3.83
2023-03-21T20:20:13.733Z,4.33
2023-03-21T20:25:28.496Z,5.38
2023-03-21T20:28:12.688Z,4.75
2023-03-21T20:30:47.169Z,4.55
2023-03-21T20:33:14.040Z,4.40
2023-03-21T20:38:31.062Z,4.88
2023-03-21T20:41:01.351Z,5.85
2023-03-21T20:44:20.390Z,3.85
2023-03-21T20:46:16.225Z,3.40
2023-03-21T20:48:43.123Z,4.85
2023-03-21T20:53:59.335Z,4.32
2023-03-21T20:56:26.103Z,4.90
2023-03-21T20:59:04.971Z,3.10
2023-03-21T21:01:39.493Z,3.83
2023-03-21T21:04:06.273Z,4.25
2023-03-21T21:06:33.311Z,2.78
2023-03-21T21:09:00.414Z,3.75
2023-03-21T21:12:05.017Z,2.73
2023-03-21T21:14:16.008Z,3.00
2023-03-21T21:16:42.644Z,3.13
2023-03-21T21:19:09.962Z,2.88
2023-03-21T21:21:36.654Z,2.70
2023-03-21T21:24:03.299Z,3.20
2023-03-21T21:26:37.356Z,2.63
2023-03-21T21:29:05.046Z,2.70
2023-03-21T21:31:34.717Z,2.63
2023-03-21T21:34:03.187Z,2.92
2023-03-21T21:36:31.095Z,2.60
2023-03-21T21:38:57.639Z,2.85
2023-03-21T21:41:24.469Z,3.10
2023-03-21T21:43:51.100Z,3.20
2023-03-21T21:46:18.016Z,2.97
2023-03-21T21:48:44.760Z,2.67
2023-03-21T21:51:11.809Z,3.70
2023-03-21T21:53:39.255Z,3.83
2023-03-21T21:56:06.441Z,3.25
2023-03-21T21:58:35.475Z,3.20
2023-03-21T22:01:02.365Z,3.97
2023-03-21T22:03:36.490Z,4.40
2023-03-21T22:06:03.578Z,3.78
2023-03-21T22:08:30.278Z,2.92
2023-03-21T22:10:58.008Z,3.97
2023-03-21T22:13:24.525Z,3.47
2023-03-21T22:15:52.554Z,3.15
2023-03-21T22:18:19.135Z,3.10
2023-03-21T22:20:45.649Z,2.83
2023-03-21T22:23:12.390Z,2.75
2023-03-21T22:25:39.537Z,2.30
2023-03-21T22:28:06.559Z,1.95
2023-03-21T22:30:39.349Z,2.47
2023-03-21T22:33:09.763Z,1.48
2023-03-21T22:35:42.396Z,1.88
2023-03-21T22:38:09.012Z,2.00
2023-03-21T22:40:35.649Z,1.70
2023-03-21T22:45:56.717Z,1.58
2023-03-21T22:48:23.357Z,1.55
2023-03-21T22:50:49.973Z,2.23
2023-03-21T22:53:17.030Z,1.60
2023-03-21T22:55:46.597Z,1.30
2023-03-21T22:58:13.174Z,1.30
2023-03-21T23:00:40.487Z,1.30
2023-03-21T23:03:07.443Z,0.90
2023-03-21T23:05:39.275Z,1.10
2023-03-21T23:08:06.703Z,1.10
2023-03-21T23:10:33.533Z,1.17
2023-03-21T23:13:00.532Z,1.48
2023-03-21T23:15:27.098Z,1.27
2023-03-21T23:17:53.717Z,1.23
2023-03-21T23:20:20.648Z,1.20
2023-03-21T23:22:47.415Z,0.85
2023-03-21T23:25:14.353Z,1.42
2023-03-21T23:27:41.055Z,1.20
2023-03-21T23:30:08.423Z,1.20
2023-03-21T23:32:35.402Z,2.42
2023-03-21T23:35:02.152Z,1.30
2023-03-21T23:37:30.249Z,0.98
2023-03-21T23:39:57.088Z,1.03
2023-03-21T23:42:25.344Z,0.70
2023-03-21T23:44:52.201Z,0.90
2023-03-21T23:47:18.951Z,1.17
2023-03-21T23:49:47.231Z,1.13
2023-03-21T23:52:14.283Z,1.10
2023-03-21T23:54:40.979Z,0.93
2023-03-21T23:57:07.574Z,1.92
2023-03-21T23:59:34.428Z,1.00
